Time;durP1;ratioP1;P1;durP2;ratioP2;P2;SDS_P1;SDS_P2;PMS_P1;PMS_P2;Temp;Humidity;BMP_temperature;BMP_pressure;BME280_temperature;BME280_humidity;BME280_pressure;Samples;Min_cycle;Max_cycle;Signal;HPM_P1;HPM_P2
2021/03/31 00:01:30;;;;;;;23.88;9.07;;;11.40;99.90;;;;;;5038187;28;20037;-66
2021/03/31 00:03:56;;;;;;;26.05;8.95;;;11.40;99.90;;;;;;5038489;28;20033;-66
2021/03/31 00:06:22;;;;;;;27.77;9.73;;;11.30;99.90;;;;;;5039732;28;20057;-65
2021/03/31 00:08:48;;;;;;;24.05;8.68;;;11.20;99.90;;;;;;5037564;28;20073;-66
2021/03/31 00:11:14;;;;;;;23.58;8.82;;;11.20;99.90;;;;;;5040194;28;20555;-66
2021/03/31 00:13:40;;;;;;;24.38;9.02;;;11.10;99.90;;;;;;5037706;28;20479;-65
2021/03/31 00:16:06;;;;;;;24.20;8.90;;;11.10;99.90;;;;;;5037853;28;20048;-65
2021/03/31 00:18:32;;;;;;;23.33;8.32;;;11.10;99.90;;;;;;5038578;28;20240;-65
2021/03/31 00:20:58;;;;;;;24.08;8.82;;;11.00;99.90;;;;;;5038906;28;20037;-66
2021/03/31 00:23:26;;;;;;;25.42;8.77;;;11.00;99.90;;;;;;5039449;28;20406;-66
2021/03/31 00:25:52;;;;;;;20.95;8.70;;;11.00;99.90;;;;;;5037950;28;20033;-65
2021/03/31 00:28:19;;;;;;;26.48;8.85;;;11.00;99.90;;;;;;5040219;28;20033;-65
2021/03/31 00:30:45;;;;;;;22.73;8.30;;;10.90;99.90;;;;;;5037116;28;20422;-64
2021/03/31 00:33:11;;;;;;;29.00;10.05;;;10.90;99.90;;;;;;5039896;28;20645;-65
2021/03/31 00:35:37;;;;;;;24.60;9.27;;;10.80;99.90;;;;;;5036097;28;20048;-65
2021/03/31 00:38:04;;;;;;;25.25;8.80;;;10.80;99.90;;;;;;5037717;28;20124;-66
2021/03/31 00:40:45;;;;;;;25.67;9.05;;;10.70;99.90;;;;;;5042218;28;20115;-65
2021/03/31 00:43:12;;;;;;;24.05;9.23;;;10.70;99.90;;;;;;5036361;28;20034;-65
2021/03/31 00:45:38;;;;;;;21.45;8.13;;;10.70;99.90;;;;;;5043973;28;20037;-66
2021/03/31 00:48:04;;;;;;;25.40;8.40;;;10.60;99.90;;;;;;5041349;28;20035;-66
2021/03/31 00:50:30;;;;;;;27.23;8.98;;;10.60;99.90;;;;;;5040940;28;20029;-65
2021/03/31 00:52:58;;;;;;;24.27;9.00;;;10.60;99.90;;;;;;5042166;28;20057;-67
2021/03/31 00:55:27;;;;;;;22.52;8.63;;;10.50;99.90;;;;;;5042587;28;20057;-65
2021/03/31 00:57:53;;;;;;;23.27;8.95;;;10.50;99.90;;;;;;5042530;28;20083;-65
2021/03/31 01:00:20;;;;;;;28.58;9.02;;;10.50;99.90;;;;;;5041037;28;20029;-65
2021/03/31 01:02:46;;;;;;;27.67;9.38;;;10.50;99.90;;;;;;5042729;28;20059;-65
2021/03/31 01:05:32;;;;;;;25.80;9.45;;;10.40;99.90;;;;;;5040130;28;20395;-65
2021/03/31 01:07:57;;;;;;;27.65;9.38;;;10.40;99.90;;;;;;5040634;28;20033;-66
2021/03/31 01:10:36;;;;;;;24.63;8.70;;;10.40;99.90;;;;;;5042066;28;20091;-66
2021/03/31 01:13:38;;;;;;;25.50;9.57;;;10.40;99.90;;;;;;5043135;28;20057;-65
2021/03/31 01:16:17;;;;;;;24.38;8.80;;;10.30;99.90;;;;;;5041929;28;20123;-66
2021/03/31 01:19:18;;;;;;;29.05;8.77;;;10.30;99.90;;;;;;5034952;28;20601;-65
2021/03/31 01:22:23;;;;;;;25.98;9.60;;;10.30;99.90;;;;;;5037019;28;20061;-66
2021/03/31 01:25:03;;;;;;;23.98;8.65;;;10.20;99.90;;;;;;5037568;28;20392;-65
2021/03/31 01:27:54;;;;;;;21.45;8.82;;;10.20;99.90;;;;;;5044536;28;20319;-65
2021/03/31 01:30:44;;;;;;;26.05;9.38;;;10.10;99.90;;;;;;5038918;28;20128;-65
2021/03/31 01:33:47;;;;;;;27.00;9.18;;;10.10;99.90;;;;;;5034823;28;20082;-66
2021/03/31 01:36:17;;;;;;;23.15;8.57;;;10.10;99.90;;;;;;5037264;28;20061;-66
2021/03/31 01:38:46;;;;;;;24.65;8.77;;;10.00;99.90;;;;;;5046715;28;20037;-66
2021/03/31 01:41:15;;;;;;;23.20;8.43;;;10.00;99.90;;;;;;5043514;28;20061;-66
2021/03/31 01:43:41;;;;;;;21.05;7.95;;;10.00;99.90;;;;;;5046555;28;20052;-66
2021/03/31 01:46:07;;;;;;;24.52;8.25;;;9.90;99.90;;;;;;5037518;28;20490;-66
2021/03/31 01:48:33;;;;;;;25.85;9.70;;;9.90;99.90;;;;;;5042965;28;20398;-66
2021/03/31 01:51:05;;;;;;;25.05;8.48;;;9.80;99.90;;;;;;5041123;28;20028;-69
2021/03/31 01:53:32;;;;;;;28.73;9.75;;;9.80;99.90;;;;;;5042033;28;20044;-65
2021/03/31 01:55:58;;;;;;;23.52;9.15;;;9.80;99.90;;;;;;5039919;28;20029;-65
2021/03/31 01:58:26;;;;;;;23.30;8.93;;;9.70;99.90;;;;;;5041159;28;20041;-65
2021/03/31 02:00:52;;;;;;;21.38;7.72;;;9.70;99.90;;;;;;5041342;28;20025;-66
2021/03/31 02:03:20;;;;;;;28.40;9.15;;;9.70;99.90;;;;;;5038913;28;20515;-65
2021/03/31 02:05:47;;;;;;;24.70;9.38;;;9.70;99.90;;;;;;5037140;28;20423;-65
2021/03/31 02:08:13;;;;;;;27.73;9.98;;;9.60;99.90;;;;;;5042212;28;20037;-66
2021/03/31 02:10:41;;;;;;;25.45;9.00;;;9.60;99.90;;;;;;5041975;28;20544;-66
2021/03/31 02:13:09;;;;;;;27.48;9.55;;;9.60;99.90;;;;;;5035454;28;20037;-65
2021/03/31 02:15:35;;;;;;;30.95;10.95;;;9.50;99.90;;;;;;5041099;28;20079;-65
2021/03/31 02:18:07;;;;;;;26.42;8.70;;;9.50;99.90;;;;;;5039441;28;20053;-65
2021/03/31 02:20:33;;;;;;;26.25;9.55;;;9.50;99.90;;;;;;5038687;28;20109;-66
2021/03/31 02:23:01;;;;;;;25.02;9.35;;;9.50;99.90;;;;;;5043047;28;20037;-66
2021/03/31 02:25:27;;;;;;;21.23;8.93;;;9.40;99.90;;;;;;5037297;28;20037;-65
2021/03/31 02:27:52;;;;;;;23.73;8.98;;;9.40;99.90;;;;;;5041124;28;20148;-65
2021/03/31 02:30:21;;;;;;;23.70;9.23;;;9.40;99.90;;;;;;5041349;28;20029;-65
2021/03/31 02:32:51;;;;;;;27.65;10.25;;;9.40;99.90;;;;;;5036884;28;20172;-66
2021/03/31 02:35:20;;;;;;;22.08;8.82;;;9.30;99.90;;;;;;5040834;28;20036;-65
2021/03/31 02:37:47;;;;;;;25.15;9.32;;;9.30;99.90;;;;;;5039510;28;20029;-65
2021/03/31 02:40:14;;;;;;;28.65;10.18;;;9.30;99.90;;;;;;5040048;28;20026;-65
2021/03/31 02:42:41;;;;;;;26.58;10.07;;;9.20;99.90;;;;;;5043741;28;20028;-65
2021/03/31 02:45:09;;;;;;;25.85;9.68;;;9.20;99.90;;;;;;5044955;28;20040;-65
2021/03/31 02:47:38;;;;;;;23.45;8.95;;;9.20;99.90;;;;;;5035062;28;20029;-66
2021/03/31 02:50:07;;;;;;;28.67;8.82;;;9.10;99.90;;;;;;5032940;28;20402;-65
2021/03/31 02:52:34;;;;;;;30.80;10.05;;;9.10;99.90;;;;;;5033587;28;20033;-65
2021/03/31 02:55:01;;;;;;;26.40;8.75;;;9.00;99.90;;;;;;5041353;28;20036;-65
2021/03/31 02:57:27;;;;;;;24.38;9.05;;;9.00;99.90;;;;;;5038452;28;20037;-66
2021/03/31 02:59:53;;;;;;;25.50;9.63;;;9.00;99.90;;;;;;5038865;28;20083;-65
2021/03/31 03:02:20;;;;;;;28.13;9.23;;;9.00;99.90;;;;;;5039405;28;20022;-65
2021/03/31 03:04:50;;;;;;;27.30;8.65;;;8.90;99.90;;;;;;5039340;28;20038;-65
2021/03/31 03:07:17;;;;;;;27.98;10.38;;;8.90;99.90;;;;;;5038993;28;20032;-65
2021/03/31 03:09:46;;;;;;;28.13;10.10;;;8.90;99.90;;;;;;5040739;28;20072;-66
2021/03/31 03:12:14;;;;;;;26.08;9.90;;;8.80;99.90;;;;;;5038530;28;20037;-65
2021/03/31 03:14:47;;;;;;;23.80;9.30;;;8.80;99.90;;;;;;5039124;28;20037;-65
2021/03/31 03:17:13;;;;;;;25.80;9.70;;;8.70;99.90;;;;;;5038654;28;20512;-64
2021/03/31 03:19:39;;;;;;;26.08;9.73;;;8.70;99.90;;;;;;5040840;28;20240;-65
2021/03/31 03:22:06;;;;;;;34.13;9.90;;;8.70;99.90;;;;;;5038126;28;20467;-65
2021/03/31 03:24:33;;;;;;;25.52;9.10;;;8.70;99.90;;;;;;5033822;28;20017;-65
2021/03/31 03:27:00;;;;;;;30.48;9.80;;;8.70;99.90;;;;;;5039700;28;20509;-65
2021/03/31 03:29:26;;;;;;;29.50;9.68;;;8.60;99.90;;;;;;5041374;28;20040;-65
2021/03/31 03:31:53;;;;;;;23.17;9.05;;;8.60;99.90;;;;;;5037004;28;20673;-66
2021/03/31 03:34:19;;;;;;;34.70;11.30;;;8.60;99.90;;;;;;5040161;28;20401;-65
2021/03/31 03:36:45;;;;;;;24.70;8.93;;;8.60;99.90;;;;;;5039056;28;20120;-65
2021/03/31 03:39:11;;;;;;;26.65;10.27;;;8.60;99.90;;;;;;5038766;28;20037;-65
2021/03/31 03:41:37;;;;;;;24.23;9.68;;;8.60;99.90;;;;;;5040384;28;20493;-65
2021/03/31 03:44:05;;;;;;;27.48;10.05;;;8.60;99.90;;;;;;5037854;28;20374;-65
2021/03/31 03:46:32;;;;;;;26.55;10.13;;;8.80;99.90;;;;;;5032863;28;20052;-66
2021/03/31 03:48:59;;;;;;;26.63;10.82;;;8.90;99.90;;;;;;5040269;28;20037;-65
2021/03/31 03:51:25;;;;;;;34.78;10.18;;;9.00;99.90;;;;;;5037884;28;20048;-65
2021/03/31 03:53:54;;;;;;;27.45;10.55;;;9.10;99.90;;;;;;5039700;28;20033;-65
2021/03/31 03:56:21;;;;;;;27.58;10.32;;;9.20;99.90;;;;;;5038566;28;20128;-65
2021/03/31 03:58:47;;;;;;;29.35;10.82;;;9.30;99.90;;;;;;5037451;28;20083;-66
2021/03/31 04:01:13;;;;;;;28.83;10.30;;;9.40;99.90;;;;;;5040046;28;20029;-65
2021/03/31 04:03:40;;;;;;;30.48;10.32;;;9.40;99.90;;;;;;5037941;28;20061;-65
2021/03/31 04:06:07;;;;;;;30.15;10.20;;;9.40;99.90;;;;;;5040893;28;20037;-65
2021/03/31 04:08:32;;;;;;;29.83;10.35;;;9.40;99.90;;;;;;5037599;28;20053;-65
2021/03/31 04:10:58;;;;;;;27.23;11.00;;;9.40;99.90;;;;;;5040637;28;20482;-65
2021/03/31 04:13:26;;;;;;;28.73;10.27;;;9.40;99.90;;;;;;5040548;28;20507;-65
2021/03/31 04:15:58;;;;;;;30.20;11.10;;;9.30;99.90;;;;;;5043800;28;20037;-67
2021/03/31 04:18:26;;;;;;;34.50;10.80;;;9.30;99.90;;;;;;5041494;28;20033;-66
2021/03/31 04:20:52;;;;;;;30.00;10.65;;;9.20;99.90;;;;;;5043490;28;20048;-65
2021/03/31 04:23:18;;;;;;;26.23;9.50;;;9.20;99.90;;;;;;5042336;28;20048;-65
2021/03/31 04:25:44;;;;;;;28.05;9.90;;;9.30;99.90;;;;;;5042447;28;20401;-65
2021/03/31 04:28:12;;;;;;;31.02;10.63;;;9.30;99.90;;;;;;5041607;28;20041;-66
2021/03/31 04:30:39;;;;;;;27.42;10.07;;;9.40;99.90;;;;;;5037266;28;20045;-65
2021/03/31 04:33:08;;;;;;;28.85;10.43;;;9.40;99.90;;;;;;5040884;28;20079;-65
2021/03/31 04:35:33;;;;;;;38.38;11.40;;;9.40;99.90;;;;;;5039440;28;20034;-65
2021/03/31 04:38:10;;;;;;;27.83;10.73;;;9.40;99.90;;;;;;5038109;28;20033;-65
2021/03/31 04:41:01;;;;;;;30.58;9.95;;;9.30;99.90;;;;;;5033629;28;20026;-65
2021/03/31 04:43:29;;;;;;;29.70;10.50;;;9.20;99.90;;;;;;5022304;28;20033;-65
2021/03/31 04:45:59;;;;;;;30.55;10.82;;;9.20;99.90;;;;;;5037528;28;20044;-65
2021/03/31 04:48:25;;;;;;;27.90;10.35;;;9.20;99.90;;;;;;5040369;28;20029;-65
2021/03/31 04:50:50;;;;;;;26.63;9.52;;;9.20;99.90;;;;;;5043091;28;21907;-65
2021/03/31 04:53:16;;;;;;;25.23;10.25;;;9.30;99.90;;;;;;5044341;28;20052;-65
2021/03/31 04:55:42;;;;;;;30.85;10.80;;;9.30;99.90;;;;;;5036104;28;20493;-65
2021/03/31 04:58:07;;;;;;;33.67;9.63;;;9.30;99.90;;;;;;5043371;28;20301;-66
2021/03/31 05:00:33;;;;;;;29.25;11.40;;;9.30;99.90;;;;;;5038233;28;20556;-65
2021/03/31 05:02:59;;;;;;;31.75;11.93;;;9.30;99.90;;;;;;5039948;28;20029;-65
2021/03/31 05:05:25;;;;;;;31.67;10.80;;;9.30;99.90;;;;;;5030239;28;20669;-65
2021/03/31 05:07:50;;;;;;;35.53;9.98;;;9.20;99.90;;;;;;5041437;28;20091;-65
2021/03/31 05:10:16;;;;;;;27.30;10.45;;;9.20;99.90;;;;;;5043538;28;20035;-65
2021/03/31 05:12:41;;;;;;;30.13;10.80;;;9.20;99.90;;;;;;5040644;28;20116;-65
2021/03/31 05:15:07;;;;;;;28.67;10.52;;;9.20;99.90;;;;;;5042239;28;20116;-66
2021/03/31 05:17:33;;;;;;;31.60;10.43;;;9.10;99.90;;;;;;5043948;28;20529;-67
2021/03/31 05:19:59;;;;;;;29.13;10.77;;;9.10;99.90;;;;;;5043986;28;20045;-66
2021/03/31 05:22:25;;;;;;;29.90;10.68;;;9.10;99.90;;;;;;5041739;28;20102;-65
2021/03/31 05:24:51;;;;;;;35.72;10.85;;;9.10;99.90;;;;;;5044848;28;20078;-66
2021/03/31 05:27:17;;;;;;;36.70;10.32;;;9.10;99.90;;;;;;5043424;28;20528;-65
2021/03/31 05:29:43;;;;;;;24.48;9.85;;;9.20;99.90;;;;;;5041152;28;20471;-65
2021/03/31 05:32:08;;;;;;;28.80;9.82;;;9.20;99.90;;;;;;5039670;28;20072;-65
2021/03/31 05:34:34;;;;;;;31.80;10.60;;;9.20;99.90;;;;;;5040346;28;20084;-66
2021/03/31 05:37:00;;;;;;;29.85;10.40;;;9.20;99.90;;;;;;5038853;28;20052;-66
2021/03/31 05:39:26;;;;;;;31.02;10.80;;;9.30;99.90;;;;;;5040911;28;20495;-66
2021/03/31 05:41:52;;;;;;;29.42;10.25;;;9.30;99.90;;;;;;5041192;28;20025;-65
2021/03/31 05:44:18;;;;;;;26.42;9.98;;;9.30;99.90;;;;;;5038005;28;20033;-65
2021/03/31 05:46:44;;;;;;;32.45;11.32;;;9.40;99.90;;;;;;5041595;28;20030;-66
2021/03/31 05:49:09;;;;;;;39.15;10.52;;;9.60;99.90;;;;;;5041211;28;20112;-65
2021/03/31 05:51:35;;;;;;;29.45;10.98;;;9.90;99.90;;;;;;5039275;28;20094;-66
2021/03/31 05:54:01;;;;;;;33.58;11.63;;;10.30;99.90;;;;;;5042185;28;20491;-66
2021/03/31 05:56:30;;;;;;;31.88;11.90;;;10.70;99.90;;;;;;5046033;28;20048;-66
2021/03/31 05:58:55;;;;;;;29.17;10.43;;;11.20;99.90;;;;;;5037481;28;20033;-66
2021/03/31 06:01:22;;;;;;;31.45;10.75;;;11.70;99.90;;;;;;5043357;28;20038;-67
2021/03/31 06:03:47;;;;;;;33.60;11.43;;;12.20;99.90;;;;;;5040236;28;20068;-67
2021/03/31 06:06:13;;;;;;;28.23;11.00;;;12.80;98.90;;;;;;5043871;28;20029;-66
2021/03/31 06:08:39;;;;;;;37.75;12.07;;;13.50;94.60;;;;;;5041116;28;20093;-67
2021/03/31 06:11:04;;;;;;;34.83;10.93;;;14.20;89.30;;;;;;5042849;28;20033;-66
2021/03/31 06:13:54;;;;;;;30.70;11.50;;;14.80;81.40;;;;;;5039275;28;20063;-65
2021/03/31 06:16:34;;;;;;;29.27;11.40;;;15.20;77.80;;;;;;5043211;28;20531;-66
2021/03/31 06:19:20;;;;;;;29.27;11.05;;;15.30;72.60;;;;;;5043377;28;20485;-66
2021/03/31 06:22:04;;;;;;;30.75;11.07;;;14.80;70.40;;;;;;5043147;28;20565;-66
2021/03/31 06:24:32;;;;;;;29.10;11.10;;;14.30;73.80;;;;;;5036534;28;20053;-65
2021/03/31 06:26:57;;;;;;;30.33;10.75;;;13.80;77.70;;;;;;5042095;28;20025;-66
2021/03/31 06:29:23;;;;;;;32.10;11.80;;;13.20;85.10;;;;;;5037156;28;20055;-65
2021/03/31 06:31:50;;;;;;;27.88;11.05;;;12.90;89.60;;;;;;5041792;28;20067;-66
2021/03/31 06:34:22;;;;;;;29.00;11.05;;;12.90;91.00;;;;;;5039062;28;20038;-67
2021/03/31 06:36:51;;;;;;;28.40;10.93;;;13.60;91.10;;;;;;5040403;28;20549;-67
2021/03/31 06:39:30;;;;;;;26.23;11.57;;;14.70;87.00;;;;;;5045557;28;20116;-66
2021/03/31 06:42:11;;;;;;;30.10;12.25;;;15.70;77.00;;;;;;5039782;28;20087;-65
2021/03/31 06:49:44;;;;;;;29.73;11.40;;;16.70;62.40;;;;;;5040900;28;19955;-65
2021/03/31 06:52:11;;;;;;;32.38;12.18;;;16.40;65.20;;;;;;5043928;28;20030;-66
2021/03/31 06:54:43;;;;;;;32.30;13.68;;;15.90;64.80;;;;;;5031346;28;20133;-66
2021/03/31 06:57:11;;;;;;;27.40;11.57;;;15.50;65.80;;;;;;5033822;28;20037;-65
2021/03/31 06:59:36;;;;;;;41.80;13.05;;;15.30;68.20;;;;;;5026965;28;20175;-65
2021/03/31 07:02:04;;;;;;;35.92;12.90;;;14.90;71.10;;;;;;5027016;28;20483;-66
2021/03/31 07:04:32;;;;;;;29.67;12.63;;;14.80;72.00;;;;;;5031920;28;20060;-65
2021/03/31 07:06:59;;;;;;;37.97;13.57;;;14.80;75.50;;;;;;5045198;28;20029;-67
2021/03/31 07:09:25;;;;;;;35.55;12.65;;;14.60;74.80;;;;;;5044825;28;20094;-66
2021/03/31 07:11:50;;;;;;;29.65;12.57;;;14.60;74.90;;;;;;5045258;28;20025;-67
2021/03/31 07:14:17;;;;;;;33.53;13.32;;;14.60;75.70;;;;;;5038884;28;20167;-66
2021/03/31 07:16:43;;;;;;;28.92;12.02;;;14.50;75.60;;;;;;5043847;28;20033;-66
2021/03/31 07:19:09;;;;;;;35.15;12.50;;;14.60;76.10;;;;;;5043911;28;20033;-66
2021/03/31 07:21:35;;;;;;;31.77;12.10;;;14.60;78.40;;;;;;5040016;28;20045;-66
2021/03/31 07:24:01;;;;;;;35.65;13.55;;;14.80;75.40;;;;;;5041803;28;20508;-67
2021/03/31 07:26:27;;;;;;;34.88;13.18;;;14.90;73.70;;;;;;5043880;28;20041;-66
2021/03/31 07:28:54;;;;;;;34.28;12.48;;;15.00;72.20;;;;;;5043838;28;20116;-66
2021/03/31 07:31:28;;;;;;;30.02;12.00;;;15.00;73.30;;;;;;5042838;28;20044;-66
2021/03/31 07:34:19;;;;;;;31.58;12.60;;;15.10;71.40;;;;;;5034030;28;20029;-67
2021/03/31 07:36:48;;;;;;;32.05;11.68;;;15.30;74.10;;;;;;5042773;28;20044;-66
2021/03/31 07:39:16;;;;;;;42.47;12.57;;;15.30;74.50;;;;;;5043686;28;20029;-66
2021/03/31 07:41:43;;;;;;;34.40;14.15;;;15.40;73.70;;;;;;5040410;28;20106;-66
2021/03/31 07:44:16;;;;;;;31.60;12.15;;;15.50;73.20;;;;;;5043274;28;20116;-66
2021/03/31 07:46:43;;;;;;;28.75;12.65;;;15.60;73.30;;;;;;5041405;28;20030;-66
2021/03/31 07:49:11;;;;;;;31.35;12.95;;;15.80;72.00;;;;;;5039770;28;20075;-66
2021/03/31 07:51:37;;;;;;;32.45;11.80;;;16.00;70.60;;;;;;5040923;28;20448;-66
2021/03/31 07:54:04;;;;;;;33.25;13.63;;;16.10;68.80;;;;;;5042091;28;20049;-66
2021/03/31 07:56:38;;;;;;;35.97;13.90;;;16.30;66.30;;;;;;5040966;28;20110;-66
2021/03/31 07:59:04;;;;;;;33.70;13.45;;;16.40;66.90;;;;;;5039543;28;20087;-66
2021/03/31 08:01:42;;;;;;;37.60;13.85;;;16.50;66.10;;;;;;5039597;28;20519;-66
2021/03/31 08:04:09;;;;;;;30.45;13.48;;;16.50;67.60;;;;;;5042353;28;20402;-66
2021/03/31 08:06:36;;;;;;;34.67;13.45;;;16.60;68.80;;;;;;5043193;28;20106;-66
2021/03/31 08:09:08;;;;;;;31.98;12.63;;;16.70;70.40;;;;;;5043777;28;20033;-66
2021/03/31 08:11:36;;;;;;;28.95;12.30;;;16.90;70.90;;;;;;5042463;28;20094;-66
2021/03/31 08:14:03;;;;;;;29.25;13.73;;;17.00;72.50;;;;;;5041155;28;20042;-67
2021/03/31 08:16:34;;;;;;;29.25;13.00;;;17.00;69.50;;;;;;5042622;28;20056;-66
2021/03/31 08:19:02;;;;;;;45.05;14.02;;;17.10;70.30;;;;;;5039356;28;20037;-66
2021/03/31 08:21:30;;;;;;;35.50;13.00;;;17.30;69.20;;;;;;5038676;28;20029;-66
2021/03/31 08:23:57;;;;;;;28.15;13.02;;;17.30;68.00;;;;;;5040813;28;20029;-67
2021/03/31 08:26:42;;;;;;;31.83;13.20;;;17.50;66.80;;;;;;5038131;28;20101;-67
2021/03/31 08:29:10;;;;;;;35.70;14.15;;;17.70;67.10;;;;;;5040910;28;20500;-66
2021/03/31 08:31:41;;;;;;;32.03;13.88;;;17.80;67.10;;;;;;5040615;28;20045;-67
2021/03/31 08:34:11;;;;;;;33.15;12.85;;;17.90;68.00;;;;;;5041875;28;20068;-67
2021/03/31 08:36:38;;;;;;;30.92;13.70;;;18.00;67.50;;;;;;5041846;28;20124;-66
2021/03/31 08:39:07;;;;;;;31.05;12.23;;;18.00;67.30;;;;;;5042153;28;20155;-67
2021/03/31 08:41:37;;;;;;;32.67;13.95;;;18.10;67.40;;;;;;5037636;28;20040;-66
2021/03/31 08:44:18;;;;;;;33.37;14.33;;;18.30;67.80;;;;;;5040985;28;20386;-66
2021/03/31 08:46:44;;;;;;;33.40;13.60;;;18.30;67.60;;;;;;5041344;28;20037;-66
2021/03/31 08:49:30;;;;;;;34.10;13.15;;;18.40;66.50;;;;;;5042923;28;20044;-66
2021/03/31 08:51:57;;;;;;;31.88;13.43;;;18.50;64.40;;;;;;5034466;28;20038;-67
2021/03/31 08:54:48;;;;;;;38.83;15.27;;;18.60;63.10;;;;;;5036722;28;20041;-66
2021/03/31 08:57:22;;;;;;;27.73;13.27;;;18.80;63.20;;;;;;5031360;28;20048;-66
2021/03/31 08:59:58;;;;;;;34.55;13.52;;;18.80;61.90;;;;;;5031400;28;20037;-66
2021/03/31 09:02:25;;;;;;;28.33;13.75;;;18.90;61.00;;;;;;5046132;28;20066;-68
2021/03/31 09:04:53;;;;;;;33.45;13.45;;;19.00;63.40;;;;;;5048750;28;20033;-65
2021/03/31 09:07:18;;;;;;;36.08;14.80;;;19.10;63.20;;;;;;5050174;28;20036;-70
2021/03/31 09:09:45;;;;;;;36.92;14.77;;;19.20;62.00;;;;;;5050785;28;20093;-66
2021/03/31 09:12:13;;;;;;;30.73;13.18;;;19.40;60.00;;;;;;5039847;28;20029;-66
2021/03/31 09:14:43;;;;;;;35.55;14.43;;;19.50;61.80;;;;;;5045774;28;20041;-67
2021/03/31 09:17:11;;;;;;;38.20;15.23;;;19.50;61.30;;;;;;5042951;28;20033;-67
2021/03/31 09:19:39;;;;;;;31.20;13.85;;;19.50;60.40;;;;;;5043792;28;20036;-67
2021/03/31 09:22:15;;;;;;;32.30;14.45;;;19.50;62.60;;;;;;5045530;28;20040;-67
2021/03/31 09:24:49;;;;;;;35.08;16.00;;;19.60;61.60;;;;;;5040442;28;20080;-66
2021/03/31 09:27:36;;;;;;;35.42;15.20;;;19.70;59.80;;;;;;5034533;28;20085;-67
2021/03/31 09:30:06;;;;;;;37.88;14.77;;;19.90;62.00;;;;;;5043764;28;20138;-67
2021/03/31 09:32:37;;;;;;;34.58;15.88;;;20.10;59.70;;;;;;5044964;28;20482;-66
2021/03/31 09:35:08;;;;;;;34.65;14.48;;;20.20;61.00;;;;;;5046422;28;20033;-65
2021/03/31 09:37:44;;;;;;;;;;;20.30;58.60;;;;;;5042241;28;20059;-67
2021/03/31 09:40:21;;;;;;;29.92;14.68;;;20.50;55.80;;;;;;5038982;28;19912;-65
2021/03/31 09:42:56;;;;;;;34.75;15.77;;;20.60;56.30;;;;;;5045033;28;20039;-66
2021/03/31 09:45:27;;;;;;;31.20;14.30;;;20.60;57.30;;;;;;5044192;28;20052;-68
2021/03/31 09:47:54;;;;;;;32.45;14.13;;;20.70;56.30;;;;;;5041827;28;20079;-67
2021/03/31 09:50:24;;;;;;;35.60;14.80;;;20.90;55.00;;;;;;5044631;28;20448;-67
2021/03/31 09:52:59;;;;;;;31.75;14.85;;;21.00;55.30;;;;;;5041033;28;20608;-66
2021/03/31 09:55:24;;;;;;;36.72;15.15;;;21.20;54.50;;;;;;5046169;28;20040;-66
2021/03/31 09:57:51;;;;;;;32.58;14.98;;;21.20;56.00;;;;;;5043300;28;20041;-66
2021/03/31 10:00:18;;;;;;;31.33;13.57;;;21.20;54.70;;;;;;5044788;28;20048;-68
2021/03/31 10:02:45;;;;;;;29.98;13.98;;;21.20;55.30;;;;;;5044750;28;20040;-67
2021/03/31 10:05:22;;;;;;;32.58;13.85;;;21.30;56.00;;;;;;5045382;28;20037;-67
2021/03/31 10:08:06;;;;;;;33.53;13.73;;;21.40;54.40;;;;;;5028724;28;20413;-67
2021/03/31 10:10:51;;;;;;;31.15;13.10;;;21.50;53.70;;;;;;5044053;28;20091;-67
2021/03/31 10:13:19;;;;;;;34.05;14.88;;;21.60;53.20;;;;;;5039252;28;20067;-66
2021/03/31 10:15:55;;;;;;;23.90;12.50;;;21.80;54.30;;;;;;5036013;28;20089;-66
2021/03/31 10:18:20;;;;;;;30.50;12.98;;;21.90;51.70;;;;;;5032156;28;20045;-66
2021/03/31 10:20:48;;;;;;;27.65;13.27;;;21.90;52.50;;;;;;5032331;28;20048;-67
2021/03/31 10:23:31;;;;;;;33.53;14.43;;;21.90;51.70;;;;;;5042559;28;20067;-67
2021/03/31 10:26:19;;;;;;;30.30;13.48;;;21.90;54.40;;;;;;5040095;28;20134;-66
2021/03/31 10:28:45;;;;;;;28.85;13.68;;;22.00;53.70;;;;;;5038028;28;20056;-67
2021/03/31 10:31:21;;;;;;;31.00;14.52;;;21.90;55.10;;;;;;5039030;28;20626;-67
2021/03/31 10:33:48;;;;;;;36.05;14.20;;;22.00;54.20;;;;;;5033455;28;20044;-65
2021/03/31 10:36:57;;;;;;;30.33;13.48;;;21.90;54.70;;;;;;5039778;28;20025;-66
2021/03/31 10:50:32;;;;;;;29.05;13.05;;;22.20;53.50;;;;;;5037736;28;20170;-68
2021/03/31 10:53:00;;;;;;;42.40;13.20;;;22.20;52.20;;;;;;5041976;28;20037;-67
2021/03/31 10:55:26;;;;;;;27.17;12.43;;;22.20;53.30;;;;;;5039511;28;20044;-68
2021/03/31 10:57:51;;;;;;;30.52;11.52;;;22.20;53.00;;;;;;5040397;28;20677;-68
2021/03/31 11:00:17;;;;;;;26.30;12.75;;;22.20;52.40;;;;;;5029106;28;20113;-68
2021/03/31 11:02:43;;;;;;;29.25;10.75;;;22.20;52.90;;;;;;5037606;28;20029;-68
2021/03/31 11:05:09;;;;;;;29.17;11.95;;;22.10;53.10;;;;;;5036861;28;20037;-68
2021/03/31 11:07:35;;;;;;;27.08;12.60;;;22.10;52.10;;;;;;5032484;28;20030;-68
2021/03/31 11:10:01;;;;;;;32.50;13.43;;;22.10;53.30;;;;;;5026450;28;20029;-67
2021/03/31 11:12:26;;;;;;;37.88;12.90;;;22.20;53.20;;;;;;5034826;28;20034;-68
2021/03/31 11:14:52;;;;;;;32.35;12.93;;;22.20;54.60;;;;;;5038069;28;20641;-68
2021/03/31 11:17:27;;;;;;;27.40;11.50;;;22.30;54.10;;;;;;5037805;28;20026;-68
2021/03/31 11:27:59;;;;;;;30.73;12.60;;;22.40;54.00;;;;;;5035563;28;20083;-67
2021/03/31 11:30:25;;;;;;;32.13;13.43;;;22.40;54.60;;;;;;5030698;28;20041;-67
2021/03/31 11:32:50;;;;;;;30.73;13.00;;;22.40;55.50;;;;;;5030733;28;20060;-67
2021/03/31 11:35:16;;;;;;;31.48;13.55;;;22.40;54.40;;;;;;5025885;28;20107;-67
2021/03/31 11:37:42;;;;;;;26.67;11.98;;;22.40;54.70;;;;;;5028377;28;20056;-67
2021/03/31 11:40:08;;;;;;;25.95;11.95;;;22.50;53.00;;;;;;5027058;28;20087;-68
2021/03/31 11:42:34;;;;;;;31.77;13.70;;;22.50;53.30;;;;;;5031824;28;20029;-67
2021/03/31 11:44:59;;;;;;;31.35;12.55;;;22.50;53.70;;;;;;5036875;28;20021;-68
2021/03/31 11:47:25;;;;;;;26.65;12.07;;;22.50;53.90;;;;;;5038921;28;20055;-68
2021/03/31 11:49:50;;;;;;;27.50;12.70;;;22.50;52.10;;;;;;5039074;28;20032;-67
2021/03/31 11:52:16;;;;;;;30.48;12.85;;;22.60;53.00;;;;;;5039232;28;20051;-68
2021/03/31 11:54:42;;;;;;;28.63;12.52;;;22.60;52.80;;;;;;5039452;28;20030;-67
2021/03/31 11:57:10;;;;;;;25.50;11.75;;;22.50;52.40;;;;;;5040275;28;20040;-68
2021/03/31 11:59:36;;;;;;;32.08;11.90;;;22.50;52.40;;;;;;5037127;28;20048;-67
2021/03/31 12:02:02;;;;;;;29.30;12.43;;;22.40;53.20;;;;;;5040567;28;20541;-67
2021/03/31 12:04:27;;;;;;;34.40;13.38;;;22.40;52.20;;;;;;5038232;28;20401;-66
2021/03/31 12:06:53;;;;;;;32.72;12.02;;;22.40;53.40;;;;;;5036739;28;20060;-67
2021/03/31 12:09:19;;;;;;;33.15;13.43;;;22.30;53.10;;;;;;5038197;28;20682;-67
2021/03/31 12:11:44;;;;;;;29.20;13.13;;;22.30;52.80;;;;;;5038383;28;20038;-67
2021/03/31 12:14:10;;;;;;;27.80;12.02;;;22.30;53.40;;;;;;5039474;28;20039;-66
2021/03/31 12:16:36;;;;;;;34.03;13.25;;;22.30;53.50;;;;;;5038900;28;20037;-67
2021/03/31 12:19:01;;;;;;;30.85;12.20;;;22.30;53.90;;;;;;5032691;28;20486;-67
2021/03/31 12:21:27;;;;;;;28.23;11.85;;;22.30;53.10;;;;;;5032163;28;20505;-67
2021/03/31 12:23:52;;;;;;;34.83;13.13;;;22.20;52.90;;;;;;5031490;28;20499;-68
2021/03/31 12:26:19;;;;;;;33.55;12.68;;;22.20;53.40;;;;;;5038073;28;20129;-68
2021/03/31 12:28:56;;;;;;;31.55;11.30;;;22.20;54.30;;;;;;5038746;28;20041;-66
2021/03/31 12:31:22;;;;;;;33.00;12.75;;;22.20;54.10;;;;;;5037635;28;20215;-68
2021/03/31 12:33:47;;;;;;;36.53;14.13;;;22.10;55.30;;;;;;5037973;28;20527;-68
2021/03/31 12:36:13;;;;;;;34.90;12.68;;;22.00;55.10;;;;;;5042337;28;20041;-68
2021/03/31 12:38:39;;;;;;;36.13;13.95;;;22.00;54.60;;;;;;5042079;28;20037;-69
2021/03/31 12:41:05;;;;;;;34.03;13.75;;;22.20;53.80;;;;;;5035252;28;20501;-68
2021/03/31 12:43:31;;;;;;;33.97;14.57;;;22.20;53.40;;;;;;5040411;28;20029;-68
2021/03/31 12:45:58;;;;;;;30.17;13.18;;;22.20;53.70;;;;;;5044833;28;20087;-67
2021/03/31 12:48:24;;;;;;;40.60;14.48;;;22.20;54.60;;;;;;5040810;28;20715;-67
2021/03/31 12:50:53;;;;;;;32.28;13.07;;;22.20;53.20;;;;;;5043432;28;20149;-69
2021/03/31 12:53:23;;;;;;;35.88;13.98;;;22.20;53.50;;;;;;5040974;28;20159;-68
2021/03/31 12:55:51;;;;;;;33.30;13.18;;;22.30;53.30;;;;;;5038979;28;20067;-68
2021/03/31 12:58:19;;;;;;;29.40;12.77;;;22.30;53.30;;;;;;5042020;28;20120;-68
2021/03/31 13:00:46;;;;;;;29.25;12.77;;;22.30;52.70;;;;;;5042295;28;20048;-68
2021/03/31 13:03:12;;;;;;;34.58;13.57;;;22.40;52.40;;;;;;5041581;28;20587;-69
2021/03/31 13:05:39;;;;;;;33.28;13.13;;;22.40;51.90;;;;;;5040457;28;20030;-68
2021/03/31 13:08:07;;;;;;;32.85;14.57;;;22.50;52.70;;;;;;5043195;28;20089;-68